sensor_id;sensor_type;location;lat;lon;timestamp;P1;durP1;ratioP1;P2;durP2;ratioP2
20230;SDS011;10274;49.022;9.338;2022-09-06T00:01:09;1.07;;;0.97;;
20230;SDS011;10274;49.022;9.338;2022-09-06T00:03:36;1.40;;;1.10;;
20230;SDS011;10274;49.022;9.338;2022-09-06T00:06:07;1.00;;;0.90;;
20230;SDS011;10274;49.022;9.338;2022-09-06T00:08:34;1.13;;;1.07;;
20230;SDS011;10274;49.022;9.338;2022-09-06T00:11:03;1.47;;;1.33;;
20230;SDS011;10274;49.022;9.338;2022-09-06T00:13:30;1.37;;;1.20;;
20230;SDS011;10274;49.022;9.338;2022-09-06T00:16:02;1.33;;;1.23;;
20230;SDS011;10274;49.022;9.338;2022-09-06T00:18:30;1.30;;;1.20;;
20230;SDS011;10274;49.022;9.338;2022-09-06T00:20:57;1.40;;;1.30;;
20230;SDS011;10274;49.022;9.338;2022-09-06T00:23:24;1.47;;;1.37;;
20230;SDS011;10274;49.022;9.338;2022-09-06T00:25:50;2.23;;;1.13;;
20230;SDS011;10274;49.022;9.338;2022-09-06T00:28:18;1.20;;;1.10;;
20230;SDS011;10274;49.022;9.338;2022-09-06T00:30:45;1.20;;;1.10;;
20230;SDS011;10274;49.022;9.338;2022-09-06T00:33:12;1.10;;;1.00;;
20230;SDS011;10274;49.022;9.338;2022-09-06T00:35:39;0.80;;;0.80;;
20230;SDS011;10274;49.022;9.338;2022-09-06T00:38:05;1.97;;;1.20;;
20230;SDS011;10274;49.022;9.338;2022-09-06T00:40:32;1.27;;;1.13;;
20230;SDS011;10274;49.022;9.338;2022-09-06T00:43:00;1.20;;;1.10;;
20230;SDS011;10274;49.022;9.338;2022-09-06T00:45:28;1.40;;;1.30;;
20230;SDS011;10274;49.022;9.338;2022-09-06T00:47:56;1.30;;;1.20;;
20230;SDS011;10274;49.022;9.338;2022-09-06T00:50:24;1.30;;;1.20;;
20230;SDS011;10274;49.022;9.338;2022-09-06T00:52:51;1.20;;;1.10;;
20230;SDS011;10274;49.022;9.338;2022-09-06T00:55:19;1.30;;;1.20;;
20230;SDS011;10274;49.022;9.338;2022-09-06T00:57:46;1.33;;;1.10;;
20230;SDS011;10274;49.022;9.338;2022-09-06T01:00:15;1.27;;;1.17;;
20230;SDS011;10274;49.022;9.338;2022-09-06T01:02:45;1.43;;;1.20;;
20230;SDS011;10274;49.022;9.338;2022-09-06T01:05:12;1.00;;;1.00;;
20230;SDS011;10274;49.022;9.338;2022-09-06T01:07:51;1.43;;;1.33;;
20230;SDS011;10274;49.022;9.338;2022-09-06T01:10:37;0.90;;;0.80;;
20230;SDS011;10274;49.022;9.338;2022-09-06T01:13:18;1.10;;;1.00;;
20230;SDS011;10274;49.022;9.338;2022-09-06T01:15:55;1.27;;;1.17;;
20230;SDS011;10274;49.022;9.338;2022-09-06T01:18:32;1.43;;;1.27;;
20230;SDS011;10274;49.022;9.338;2022-09-06T01:21:14;1.10;;;1.00;;
20230;SDS011;10274;49.022;9.338;2022-09-06T01:24:17;1.90;;;1.23;;
20230;SDS011;10274;49.022;9.338;2022-09-06T01:29:58;1.27;;;1.00;;
20230;SDS011;10274;49.022;9.338;2022-09-06T01:32:29;1.13;;;1.03;;
20230;SDS011;10274;49.022;9.338;2022-09-06T01:35:04;1.27;;;1.07;;
20230;SDS011;10274;49.022;9.338;2022-09-06T01:37:38;1.10;;;1.00;;
20230;SDS011;10274;49.022;9.338;2022-09-06T01:40:06;1.10;;;1.00;;
20230;SDS011;10274;49.022;9.338;2022-09-06T01:42:34;1.57;;;1.30;;
20230;SDS011;10274;49.022;9.338;2022-09-06T01:45:03;1.40;;;1.30;;
20230;SDS011;10274;49.022;9.338;2022-09-06T01:47:36;1.43;;;1.10;;
20230;SDS011;10274;49.022;9.338;2022-09-06T01:50:18;1.30;;;1.20;;
20230;SDS011;10274;49.022;9.338;2022-09-06T01:53:02;1.60;;;1.20;;
20230;SDS011;10274;49.022;9.338;2022-09-06T01:55:42;1.43;;;1.33;;
20230;SDS011;10274;49.022;9.338;2022-09-06T01:58:26;1.30;;;1.20;;
20230;SDS011;10274;49.022;9.338;2022-09-06T02:01:02;1.37;;;1.10;;
20230;SDS011;10274;49.022;9.338;2022-09-06T02:03:35;1.40;;;1.30;;
20230;SDS011;10274;49.022;9.338;2022-09-06T02:06:10;1.47;;;1.37;;
20230;SDS011;10274;49.022;9.338;2022-09-06T02:08:43;1.63;;;1.40;;
20230;SDS011;10274;49.022;9.338;2022-09-06T02:11:13;1.47;;;1.37;;
20230;SDS011;10274;49.022;9.338;2022-09-06T02:13:43;1.17;;;1.07;;
20230;SDS011;10274;49.022;9.338;2022-09-06T02:16:14;1.10;;;1.00;;
20230;SDS011;10274;49.022;9.338;2022-09-06T02:18:46;1.13;;;1.03;;
20230;SDS011;10274;49.022;9.338;2022-09-06T02:21:17;1.33;;;1.23;;
20230;SDS011;10274;49.022;9.338;2022-09-06T02:23:47;1.07;;;0.93;;
20230;SDS011;10274;49.022;9.338;2022-09-06T02:26:16;1.30;;;1.20;;
20230;SDS011;10274;49.022;9.338;2022-09-06T02:28:47;1.80;;;1.67;;
20230;SDS011;10274;49.022;9.338;2022-09-06T02:31:15;1.50;;;1.40;;
20230;SDS011;10274;49.022;9.338;2022-09-06T02:33:46;1.30;;;1.20;;
20230;SDS011;10274;49.022;9.338;2022-09-06T02:36:14;1.30;;;1.20;;
20230;SDS011;10274;49.022;9.338;2022-09-06T02:38:41;1.50;;;1.40;;
20230;SDS011;10274;49.022;9.338;2022-09-06T02:41:10;1.37;;;1.27;;
20230;SDS011;10274;49.022;9.338;2022-09-06T02:43:38;1.37;;;1.27;;
20230;SDS011;10274;49.022;9.338;2022-09-06T02:46:07;1.80;;;1.50;;
20230;SDS011;10274;49.022;9.338;2022-09-06T02:48:34;1.60;;;1.50;;
20230;SDS011;10274;49.022;9.338;2022-09-06T02:51:01;1.20;;;1.10;;
20230;SDS011;10274;49.022;9.338;2022-09-06T02:53:28;1.67;;;1.40;;
20230;SDS011;10274;49.022;9.338;2022-09-06T02:55:55;1.47;;;1.37;;
20230;SDS011;10274;49.022;9.338;2022-09-06T02:58:22;2.17;;;1.30;;
20230;SDS011;10274;49.022;9.338;2022-09-06T03:00:49;1.67;;;1.57;;
20230;SDS011;10274;49.022;9.338;2022-09-06T03:03:18;1.20;;;1.10;;
20230;SDS011;10274;49.022;9.338;2022-09-06T03:05:45;1.70;;;1.60;;
20230;SDS011;10274;49.022;9.338;2022-09-06T03:08:12;1.50;;;1.40;;
20230;SDS011;10274;49.022;9.338;2022-09-06T03:10:39;2.10;;;1.87;;
20230;SDS011;10274;49.022;9.338;2022-09-06T03:13:06;1.33;;;1.23;;
20230;SDS011;10274;49.022;9.338;2022-09-06T03:15:32;1.90;;;1.60;;
20230;SDS011;10274;49.022;9.338;2022-09-06T03:17:59;1.60;;;1.50;;
20230;SDS011;10274;49.022;9.338;2022-09-06T03:20:27;1.97;;;1.53;;
20230;SDS011;10274;49.022;9.338;2022-09-06T03:22:54;1.50;;;1.40;;
20230;SDS011;10274;49.022;9.338;2022-09-06T03:25:20;1.47;;;1.37;;
20230;SDS011;10274;49.022;9.338;2022-09-06T03:27:47;2.10;;;1.90;;
20230;SDS011;10274;49.022;9.338;2022-09-06T03:30:14;2.37;;;1.60;;
20230;SDS011;10274;49.022;9.338;2022-09-06T03:32:41;1.53;;;1.43;;
20230;SDS011;10274;49.022;9.338;2022-09-06T03:35:08;1.83;;;1.70;;
20230;SDS011;10274;49.022;9.338;2022-09-06T03:37:36;1.63;;;1.53;;
20230;SDS011;10274;49.022;9.338;2022-09-06T03:40:03;1.47;;;1.33;;
20230;SDS011;10274;49.022;9.338;2022-09-06T03:42:31;1.10;;;1.07;;
20230;SDS011;10274;49.022;9.338;2022-09-06T03:44:58;2.70;;;1.73;;
20230;SDS011;10274;49.022;9.338;2022-09-06T03:47:24;1.50;;;1.40;;
20230;SDS011;10274;49.022;9.338;2022-09-06T03:49:51;2.00;;;1.80;;
20230;SDS011;10274;49.022;9.338;2022-09-06T03:52:18;1.93;;;1.67;;
20230;SDS011;10274;49.022;9.338;2022-09-06T03:54:46;3.20;;;1.67;;
20230;SDS011;10274;49.022;9.338;2022-09-06T03:57:12;2.10;;;1.73;;
20230;SDS011;10274;49.022;9.338;2022-09-06T03:59:39;1.70;;;1.60;;
20230;SDS011;10274;49.022;9.338;2022-09-06T04:02:06;1.53;;;1.43;;
20230;SDS011;10274;49.022;9.338;2022-09-06T04:04:32;1.83;;;1.63;;
20230;SDS011;10274;49.022;9.338;2022-09-06T04:06:59;1.53;;;1.43;;
20230;SDS011;10274;49.022;9.338;2022-09-06T04:09:26;1.53;;;1.40;;
20230;SDS011;10274;49.022;9.338;2022-09-06T04:11:54;2.50;;;1.70;;
20230;SDS011;10274;49.022;9.338;2022-09-06T04:14:20;2.03;;;1.83;;
20230;SDS011;10274;49.022;9.338;2022-09-06T04:16:47;1.80;;;1.50;;
20230;SDS011;10274;49.022;9.338;2022-09-06T04:19:14;1.70;;;1.60;;
20230;SDS011;10274;49.022;9.338;2022-09-06T04:21:40;2.00;;;1.90;;
20230;SDS011;10274;49.022;9.338;2022-09-06T04:24:07;1.50;;;1.37;;
20230;SDS011;10274;49.022;9.338;2022-09-06T04:26:34;1.70;;;1.60;;
20230;SDS011;10274;49.022;9.338;2022-09-06T04:29:02;2.23;;;1.70;;
20230;SDS011;10274;49.022;9.338;2022-09-06T04:31:29;3.47;;;2.00;;
20230;SDS011;10274;49.022;9.338;2022-09-06T04:33:55;2.50;;;1.80;;
20230;SDS011;10274;49.022;9.338;2022-09-06T04:36:22;2.77;;;2.07;;
20230;SDS011;10274;49.022;9.338;2022-09-06T04:38:49;1.60;;;1.50;;
20230;SDS011;10274;49.022;9.338;2022-09-06T04:41:16;1.73;;;1.40;;
20230;SDS011;10274;49.022;9.338;2022-09-06T04:43:43;2.43;;;1.80;;
20230;SDS011;10274;49.022;9.338;2022-09-06T04:46:14;2.10;;;1.80;;
20230;SDS011;10274;49.022;9.338;2022-09-06T04:48:44;2.07;;;1.60;;
20230;SDS011;10274;49.022;9.338;2022-09-06T04:51:11;1.90;;;1.60;;
20230;SDS011;10274;49.022;9.338;2022-09-06T04:53:38;1.97;;;1.50;;
20230;SDS011;10274;49.022;9.338;2022-09-06T04:56:04;2.63;;;2.40;;
20230;SDS011;10274;49.022;9.338;2022-09-06T04:58:31;2.03;;;1.83;;
20230;SDS011;10274;49.022;9.338;2022-09-06T05:00:58;1.80;;;1.70;;
20230;SDS011;10274;49.022;9.338;2022-09-06T05:03:26;2.20;;;1.90;;
20230;SDS011;10274;49.022;9.338;2022-09-06T05:06:02;1.70;;;1.60;;
20230;SDS011;10274;49.022;9.338;2022-09-06T05:08:29;3.63;;;1.90;;
20230;SDS011;10274;49.022;9.338;2022-09-06T05:10:56;2.30;;;2.10;;
20230;SDS011;10274;49.022;9.338;2022-09-06T05:13:22;1.73;;;1.60;;
20230;SDS011;10274;49.022;9.338;2022-09-06T05:15:49;1.73;;;1.63;;
20230;SDS011;10274;49.022;9.338;2022-09-06T05:18:16;2.10;;;1.83;;
20230;SDS011;10274;49.022;9.338;2022-09-06T05:20:44;2.63;;;1.87;;
20230;SDS011;10274;49.022;9.338;2022-09-06T05:23:16;1.70;;;1.57;;
20230;SDS011;10274;49.022;9.338;2022-09-06T05:25:43;1.90;;;1.57;;
20230;SDS011;10274;49.022;9.338;2022-09-06T05:28:09;2.07;;;1.87;;
20230;SDS011;10274;49.022;9.338;2022-09-06T05:30:36;1.73;;;1.63;;
20230;SDS011;10274;49.022;9.338;2022-09-06T05:33:03;2.03;;;1.80;;
20230;SDS011;10274;49.022;9.338;2022-09-06T05:35:29;1.70;;;1.60;;
20230;SDS011;10274;49.022;9.338;2022-09-06T05:37:57;1.47;;;1.37;;
20230;SDS011;10274;49.022;9.338;2022-09-06T05:40:24;1.87;;;1.73;;
20230;SDS011;10274;49.022;9.338;2022-09-06T05:42:50;2.00;;;1.80;;
20230;SDS011;10274;49.022;9.338;2022-09-06T05:45:17;1.43;;;1.30;;
20230;SDS011;10274;49.022;9.338;2022-09-06T05:47:44;1.50;;;1.37;;
20230;SDS011;10274;49.022;9.338;2022-09-06T05:50:11;1.70;;;1.60;;
20230;SDS011;10274;49.022;9.338;2022-09-06T05:52:38;1.60;;;1.50;;
20230;SDS011;10274;49.022;9.338;2022-09-06T05:55:06;2.33;;;1.80;;
20230;SDS011;10274;49.022;9.338;2022-09-06T05:57:34;1.77;;;1.60;;
20230;SDS011;10274;49.022;9.338;2022-09-06T06:00:00;1.70;;;1.60;;
20230;SDS011;10274;49.022;9.338;2022-09-06T06:02:28;2.13;;;1.93;;
20230;SDS011;10274;49.022;9.338;2022-09-06T06:04:54;2.23;;;1.80;;
20230;SDS011;10274;49.022;9.338;2022-09-06T06:07:22;1.97;;;1.60;;
20230;SDS011;10274;49.022;9.338;2022-09-06T06:09:49;2.20;;;1.70;;
20230;SDS011;10274;49.022;9.338;2022-09-06T06:12:17;1.87;;;1.77;;
20230;SDS011;10274;49.022;9.338;2022-09-06T06:14:44;2.07;;;1.83;;
20230;SDS011;10274;49.022;9.338;2022-09-06T06:17:10;1.83;;;1.73;;
20230;SDS011;10274;49.022;9.338;2022-09-06T06:19:37;1.93;;;1.73;;
20230;SDS011;10274;49.022;9.338;2022-09-06T06:22:04;1.60;;;1.50;;
20230;SDS011;10274;49.022;9.338;2022-09-06T06:24:30;2.00;;;1.67;;
20230;SDS011;10274;49.022;9.338;2022-09-06T06:26:57;2.27;;;2.07;;
20230;SDS011;10274;49.022;9.338;2022-09-06T06:29:25;2.33;;;1.90;;
20230;SDS011;10274;49.022;9.338;2022-09-06T06:31:51;2.77;;;2.00;;
20230;SDS011;10274;49.022;9.338;2022-09-06T06:34:18;2.90;;;2.10;;
20230;SDS011;10274;49.022;9.338;2022-09-06T06:36:46;2.33;;;1.80;;
20230;SDS011;10274;49.022;9.338;2022-09-06T06:39:12;3.13;;;2.10;;
20230;SDS011;10274;49.022;9.338;2022-09-06T06:41:39;1.83;;;1.70;;
20230;SDS011;10274;49.022;9.338;2022-09-06T06:44:06;2.87;;;2.17;;
20230;SDS011;10274;49.022;9.338;2022-09-06T06:46:34;2.63;;;1.77;;
20230;SDS011;10274;49.022;9.338;2022-09-06T06:49:02;2.93;;;1.87;;
20230;SDS011;10274;49.022;9.338;2022-09-06T06:51:30;2.10;;;1.90;;
20230;SDS011;10274;49.022;9.338;2022-09-06T06:54:01;2.33;;;1.77;;
20230;SDS011;10274;49.022;9.338;2022-09-06T06:56:29;2.20;;;2.00;;
20230;SDS011;10274;49.022;9.338;2022-09-06T06:58:57;3.00;;;2.00;;
20230;SDS011;10274;49.022;9.338;2022-09-06T07:01:26;2.40;;;2.13;;
20230;SDS011;10274;49.022;9.338;2022-09-06T07:03:55;2.27;;;2.07;;
20230;SDS011;10274;49.022;9.338;2022-09-06T07:06:22;2.07;;;1.67;;
20230;SDS011;10274;49.022;9.338;2022-09-06T07:08:49;2.07;;;1.87;;
20230;SDS011;10274;49.022;9.338;2022-09-06T07:11:16;2.20;;;2.00;;
20230;SDS011;10274;49.022;9.338;2022-09-06T07:13:43;2.00;;;1.80;;
20230;SDS011;10274;49.022;9.338;2022-09-06T07:16:11;2.43;;;1.70;;
20230;SDS011;10274;49.022;9.338;2022-09-06T07:18:39;2.57;;;1.80;;
20230;SDS011;10274;49.022;9.338;2022-09-06T07:21:09;2.37;;;1.90;;
20230;SDS011;10274;49.022;9.338;2022-09-06T07:23:37;2.17;;;1.97;;
20230;SDS011;10274;49.022;9.338;2022-09-06T07:26:04;2.70;;;2.20;;
20230;SDS011;10274;49.022;9.338;2022-09-06T07:28:31;2.07;;;1.80;;
20230;SDS011;10274;49.022;9.338;2022-09-06T07:30:57;1.80;;;1.70;;
20230;SDS011;10274;49.022;9.338;2022-09-06T07:33:25;2.27;;;1.90;;
20230;SDS011;10274;49.022;9.338;2022-09-06T07:35:55;2.40;;;1.63;;
20230;SDS011;10274;49.022;9.338;2022-09-06T07:38:25;1.97;;;1.77;;
20230;SDS011;10274;49.022;9.338;2022-09-06T07:40:52;1.67;;;1.57;;
20230;SDS011;10274;49.022;9.338;2022-09-06T07:43:19;2.00;;;1.80;;
20230;SDS011;10274;49.022;9.338;2022-09-06T07:45:46;2.13;;;1.90;;
20230;SDS011;10274;49.022;9.338;2022-09-06T07:48:13;2.10;;;1.90;;
20230;SDS011;10274;49.022;9.338;2022-09-06T07:50:40;1.70;;;1.53;;
20230;SDS011;10274;49.022;9.338;2022-09-06T07:53:07;1.67;;;1.57;;
20230;SDS011;10274;49.022;9.338;2022-09-06T07:55:36;1.73;;;1.63;;
20230;SDS011;10274;49.022;9.338;2022-09-06T07:58:03;2.00;;;1.80;;
20230;SDS011;10274;49.022;9.338;2022-09-06T08:00:29;1.70;;;1.60;;
20230;SDS011;10274;49.022;9.338;2022-09-06T08:02:57;2.03;;;1.83;;
20230;SDS011;10274;49.022;9.338;2022-09-06T08:05:24;2.07;;;1.80;;
20230;SDS011;10274;49.022;9.338;2022-09-06T08:07:50;1.57;;;1.47;;
20230;SDS011;10274;49.022;9.338;2022-09-06T08:10:17;2.30;;;1.57;;
20230;SDS011;10274;49.022;9.338;2022-09-06T08:12:45;1.73;;;1.60;;
20230;SDS011;10274;49.022;9.338;2022-09-06T08:15:12;1.70;;;1.30;;
20230;SDS011;10274;49.022;9.338;2022-09-06T08:17:38;1.70;;;1.60;;
20230;SDS011;10274;49.022;9.338;2022-09-06T08:20:05;1.50;;;1.40;;
20230;SDS011;10274;49.022;9.338;2022-09-06T08:22:32;2.90;;;1.70;;
20230;SDS011;10274;49.022;9.338;2022-09-06T08:24:59;2.40;;;1.57;;
20230;SDS011;10274;49.022;9.338;2022-09-06T08:27:26;1.97;;;1.77;;
20230;SDS011;10274;49.022;9.338;2022-09-06T08:29:54;1.70;;;1.57;;
20230;SDS011;10274;49.022;9.338;2022-09-06T08:32:20;1.80;;;1.60;;
20230;SDS011;10274;49.022;9.338;2022-09-06T08:34:47;1.93;;;1.50;;
20230;SDS011;10274;49.022;9.338;2022-09-06T08:37:14;1.70;;;1.33;;
20230;SDS011;10274;49.022;9.338;2022-09-06T08:39:41;1.47;;;1.37;;
20230;SDS011;10274;49.022;9.338;2022-09-06T08:42:07;1.80;;;1.70;;
20230;SDS011;10274;49.022;9.338;2022-09-06T08:44:36;1.25;;;1.15;;
20230;SDS011;10274;49.022;9.338;2022-09-06T08:47:08;1.60;;;1.45;;
20230;SDS011;10274;49.022;9.338;2022-09-06T08:49:37;1.27;;;1.17;;
20230;SDS011;10274;49.022;9.338;2022-09-06T08:52:24;1.77;;;1.67;;
20230;SDS011;10274;49.022;9.338;2022-09-06T08:58:04;1.20;;;1.10;;
20230;SDS011;10274;49.022;9.338;2022-09-06T09:00:46;1.83;;;1.30;;
20230;SDS011;10274;49.022;9.338;2022-09-06T09:03:17;1.50;;;1.40;;
20230;SDS011;10274;49.022;9.338;2022-09-06T09:05:48;1.50;;;1.20;;
20230;SDS011;10274;49.022;9.338;2022-09-06T09:08:19;1.35;;;1.05;;
20230;SDS011;10274;49.022;9.338;2022-09-06T09:10:50;2.17;;;1.40;;
20230;SDS011;10274;49.022;9.338;2022-09-06T09:13:21;1.65;;;1.27;;
20230;SDS011;10274;49.022;9.338;2022-09-06T09:15:52;1.20;;;1.10;;
20230;SDS011;10274;49.022;9.338;2022-09-06T09:18:21;0.93;;;0.93;;
20230;SDS011;10274;49.022;9.338;2022-09-06T09:20:50;1.10;;;1.00;;
20230;SDS011;10274;49.022;9.338;2022-09-06T09:23:17;1.08;;;1.00;;
20230;SDS011;10274;49.022;9.338;2022-09-06T09:25:44;1.52;;;1.20;;
20230;SDS011;10274;49.022;9.338;2022-09-06T09:28:15;1.30;;;1.13;;
20230;SDS011;10274;49.022;9.338;2022-09-06T09:30:44;1.08;;;1.00;;
20230;SDS011;10274;49.022;9.338;2022-09-06T09:33:24;1.52;;;0.90;;
20230;SDS011;10274;49.022;9.338;2022-09-06T09:35:53;1.20;;;1.10;;
20230;SDS011;10274;49.022;9.338;2022-09-06T09:38:22;0.70;;;0.70;;
20230;SDS011;10274;49.022;9.338;2022-09-06T09:40:51;1.08;;;1.08;;
20230;SDS011;10274;49.022;9.338;2022-09-06T09:43:20;1.30;;;1.20;;
20230;SDS011;10274;49.022;9.338;2022-09-06T09:48:43;1.10;;;1.10;;
20230;SDS011;10274;49.022;9.338;2022-09-06T09:51:25;2.17;;;1.20;;
20230;SDS011;10274;49.022;9.338;2022-09-06T09:53:53;1.45;;;1.35;;
20230;SDS011;10274;49.022;9.338;2022-09-06T09:56:24;1.60;;;1.50;;
20230;SDS011;10274;49.022;9.338;2022-09-06T09:58:54;1.02;;;1.02;;
20230;SDS011;10274;49.022;9.338;2022-09-06T10:01:25;2.05;;;1.10;;
20230;SDS011;10274;49.022;9.338;2022-09-06T10:04:05;1.40;;;1.27;;
20230;SDS011;10274;49.022;9.338;2022-09-06T10:06:34;1.00;;;1.00;;
20230;SDS011;10274;49.022;9.338;2022-09-06T10:09:11;1.23;;;1.13;;
20230;SDS011;10274;49.022;9.338;2022-09-06T10:11:46;1.23;;;1.10;;
20230;SDS011;10274;49.022;9.338;2022-09-06T10:14:22;1.27;;;1.17;;
20230;SDS011;10274;49.022;9.338;2022-09-06T10:16:51;1.40;;;1.30;;
20230;SDS011;10274;49.022;9.338;2022-09-06T10:19:34;1.30;;;1.20;;
20230;SDS011;10274;49.022;9.338;2022-09-06T10:22:11;1.20;;;1.10;;
20230;SDS011;10274;49.022;9.338;2022-09-06T10:24:48;1.80;;;1.10;;
20230;SDS011;10274;49.022;9.338;2022-09-06T10:27:24;0.90;;;0.90;;
20230;SDS011;10274;49.022;9.338;2022-09-06T10:29:53;1.63;;;1.15;;
20230;SDS011;10274;49.022;9.338;2022-09-06T10:32:28;1.20;;;1.10;;
20230;SDS011;10274;49.022;9.338;2022-09-06T10:35:07;1.27;;;1.17;;
20230;SDS011;10274;49.022;9.338;2022-09-06T10:37:43;2.05;;;1.33;;
20230;SDS011;10274;49.022;9.338;2022-09-06T10:40:16;1.45;;;1.35;;
20230;SDS011;10274;49.022;9.338;2022-09-06T10:42:51;1.50;;;1.00;;
20230;SDS011;10274;49.022;9.338;2022-09-06T10:45:26;1.60;;;1.35;;
20230;SDS011;10274;49.022;9.338;2022-09-06T10:47:58;1.23;;;1.13;;
20230;SDS011;10274;49.022;9.338;2022-09-06T10:50:32;1.20;;;1.10;;
20230;SDS011;10274;49.022;9.338;2022-09-06T10:53:05;1.00;;;1.00;;
20230;SDS011;10274;49.022;9.338;2022-09-06T10:55:35;1.40;;;1.30;;
20230;SDS011;10274;49.022;9.338;2022-09-06T10:58:05;1.63;;;1.42;;
20230;SDS011;10274;49.022;9.338;2022-09-06T11:00:35;1.42;;;1.33;;
20230;SDS011;10274;49.022;9.338;2022-09-06T11:03:09;1.70;;;1.38;;
20230;SDS011;10274;49.022;9.338;2022-09-06T11:05:44;1.15;;;1.10;;
20230;SDS011;10274;49.022;9.338;2022-09-06T11:08:17;1.27;;;1.10;;
20230;SDS011;10274;49.022;9.338;2022-09-06T11:10:50;1.25;;;1.15;;
20230;SDS011;10274;49.022;9.338;2022-09-06T11:13:20;1.52;;;1.42;;
20230;SDS011;10274;49.022;9.338;2022-09-06T11:15:51;1.50;;;1.40;;
20230;SDS011;10274;49.022;9.338;2022-09-06T11:18:22;1.30;;;1.20;;
20230;SDS011;10274;49.022;9.338;2022-09-06T11:20:55;1.38;;;1.27;;
20230;SDS011;10274;49.022;9.338;2022-09-06T11:23:46;1.20;;;1.10;;
20230;SDS011;10274;49.022;9.338;2022-09-06T11:26:32;1.38;;;1.10;;
20230;SDS011;10274;49.022;9.338;2022-09-06T11:29:02;1.40;;;0.90;;
20230;SDS011;10274;49.022;9.338;2022-09-06T11:31:32;1.40;;;1.30;;
20230;SDS011;10274;49.022;9.338;2022-09-06T11:34:18;1.80;;;1.30;;
20230;SDS011;10274;49.022;9.338;2022-09-06T11:36:47;1.35;;;1.25;;
20230;SDS011;10274;49.022;9.338;2022-09-06T11:39:22;1.10;;;1.10;;
20230;SDS011;10274;49.022;9.338;2022-09-06T11:41:52;0.90;;;0.90;;
20230;SDS011;10274;49.022;9.338;2022-09-06T11:47:35;1.20;;;1.13;;
20230;SDS011;10274;49.022;9.338;2022-09-06T11:53:14;1.05;;;0.95;;
20230;SDS011;10274;49.022;9.338;2022-09-06T11:55:43;1.10;;;1.00;;
20230;SDS011;10274;49.022;9.338;2022-09-06T11:58:18;1.08;;;1.02;;
20230;SDS011;10274;49.022;9.338;2022-09-06T12:04:00;1.17;;;1.08;;
20230;SDS011;10274;49.022;9.338;2022-09-06T12:06:29;0.90;;;0.90;;
20230;SDS011;10274;49.022;9.338;2022-09-06T12:09:00;1.20;;;0.95;;
20230;SDS011;10274;49.022;9.338;2022-09-06T12:11:47;1.40;;;1.30;;
20230;SDS011;10274;49.022;9.338;2022-09-06T12:14:25;1.10;;;1.00;;
20230;SDS011;10274;49.022;9.338;2022-09-06T12:19:52;3.60;;;0.90;;
20230;SDS011;10274;49.022;9.338;2022-09-06T12:28:21;0.77;;;0.77;;
20230;SDS011;10274;49.022;9.338;2022-09-06T12:30:51;1.67;;;1.40;;
20230;SDS011;10274;49.022;9.338;2022-09-06T12:33:20;1.67;;;1.20;;
20230;SDS011;10274;49.022;9.338;2022-09-06T12:35:50;1.80;;;1.13;;
20230;SDS011;10274;49.022;9.338;2022-09-06T12:38:21;1.20;;;1.10;;
20230;SDS011;10274;49.022;9.338;2022-09-06T12:40:49;0.95;;;0.95;;
20230;SDS011;10274;49.022;9.338;2022-09-06T12:43:22;1.08;;;1.05;;
20230;SDS011;10274;49.022;9.338;2022-09-06T12:45:50;5.03;;;1.15;;
20230;SDS011;10274;49.022;9.338;2022-09-06T12:48:24;1.00;;;0.90;;
20230;SDS011;10274;49.022;9.338;2022-09-06T12:50:59;0.77;;;0.77;;
20230;SDS011;10274;49.022;9.338;2022-09-06T12:53:27;1.70;;;0.95;;
20230;SDS011;10274;49.022;9.338;2022-09-06T12:56:04;1.00;;;1.00;;
20230;SDS011;10274;49.022;9.338;2022-09-06T12:58:32;0.80;;;0.80;;
20230;SDS011;10274;49.022;9.338;2022-09-06T13:01:02;0.95;;;0.90;;
20230;SDS011;10274;49.022;9.338;2022-09-06T13:03:34;0.80;;;0.80;;
20230;SDS011;10274;49.022;9.338;2022-09-06T13:06:05;0.90;;;0.82;;
20230;SDS011;10274;49.022;9.338;2022-09-06T13:08:33;1.20;;;1.10;;
20230;SDS011;10274;49.022;9.338;2022-09-06T13:11:07;1.20;;;1.00;;
20230;SDS011;10274;49.022;9.338;2022-09-06T13:13:43;1.00;;;0.90;;
20230;SDS011;10274;49.022;9.338;2022-09-06T13:16:17;1.05;;;0.98;;
20230;SDS011;10274;49.022;9.338;2022-09-06T13:18:48;0.93;;;0.93;;
20230;SDS011;10274;49.022;9.338;2022-09-06T13:21:23;0.98;;;0.98;;
20230;SDS011;10274;49.022;9.338;2022-09-06T13:23:52;1.10;;;1.00;;
20230;SDS011;10274;49.022;9.338;2022-09-06T13:26:32;1.63;;;1.23;;
20230;SDS011;10274;49.022;9.338;2022-09-06T13:29:10;0.75;;;0.75;;
20230;SDS011;10274;49.022;9.338;2022-09-06T13:31:47;1.20;;;1.00;;
20230;SDS011;10274;49.022;9.338;2022-09-06T13:34:18;1.27;;;1.20;;
20230;SDS011;10274;49.022;9.338;2022-09-06T13:36:47;1.63;;;1.38;;
20230;SDS011;10274;49.022;9.338;2022-09-06T13:39:27;0.90;;;0.90;;
20230;SDS011;10274;49.022;9.338;2022-09-06T13:42:00;0.60;;;0.60;;
20230;SDS011;10274;49.022;9.338;2022-09-06T13:44:28;1.35;;;0.77;;
20230;SDS011;10274;49.022;9.338;2022-09-06T13:46:56;1.02;;;1.02;;
20230;SDS011;10274;49.022;9.338;2022-09-06T13:49:23;0.90;;;0.90;;
20230;SDS011;10274;49.022;9.338;2022-09-06T13:51:50;2.35;;;0.80;;
20230;SDS011;10274;49.022;9.338;2022-09-06T13:54:18;0.70;;;0.70;;
20230;SDS011;10274;49.022;9.338;2022-09-06T13:56:46;1.00;;;0.80;;
20230;SDS011;10274;49.022;9.338;2022-09-06T13:59:15;1.90;;;0.90;;
20230;SDS011;10274;49.022;9.338;2022-09-06T14:01:43;0.82;;;0.80;;
20230;SDS011;10274;49.022;9.338;2022-09-06T14:04:13;0.60;;;0.60;;
20230;SDS011;10274;49.022;9.338;2022-09-06T14:06:43;0.80;;;0.80;;
20230;SDS011;10274;49.022;9.338;2022-09-06T14:09:10;0.85;;;0.70;;
20230;SDS011;10274;49.022;9.338;2022-09-06T14:11:37;0.90;;;0.90;;
20230;SDS011;10274;49.022;9.338;2022-09-06T14:14:04;1.08;;;0.77;;
20230;SDS011;10274;49.022;9.338;2022-09-06T14:16:33;1.00;;;0.80;;
20230;SDS011;10274;49.022;9.338;2022-09-06T14:19:00;0.82;;;0.82;;
20230;SDS011;10274;49.022;9.338;2022-09-06T14:21:26;1.05;;;0.90;;
20230;SDS011;10274;49.022;9.338;2022-09-06T14:23:53;0.55;;;0.55;;
20230;SDS011;10274;49.022;9.338;2022-09-06T14:26:20;0.70;;;0.70;;
20230;SDS011;10274;49.022;9.338;2022-09-06T14:28:47;0.47;;;0.47;;
20230;SDS011;10274;49.022;9.338;2022-09-06T14:31:15;1.13;;;0.90;;
20230;SDS011;10274;49.022;9.338;2022-09-06T14:33:45;2.42;;;1.02;;
20230;SDS011;10274;49.022;9.338;2022-09-06T14:36:13;0.70;;;0.70;;
20230;SDS011;10274;49.022;9.338;2022-09-06T14:38:42;1.17;;;1.00;;
20230;SDS011;10274;49.022;9.338;2022-09-06T14:41:09;1.10;;;0.80;;
20230;SDS011;10274;49.022;9.338;2022-09-06T14:43:38;0.55;;;0.55;;
20230;SDS011;10274;49.022;9.338;2022-09-06T14:46:07;0.70;;;0.70;;
20230;SDS011;10274;49.022;9.338;2022-09-06T14:48:36;0.90;;;0.80;;
20230;SDS011;10274;49.022;9.338;2022-09-06T14:51:08;1.02;;;0.90;;
20230;SDS011;10274;49.022;9.338;2022-09-06T14:53:38;1.13;;;0.90;;
20230;SDS011;10274;49.022;9.338;2022-09-06T14:56:06;0.93;;;0.70;;
20230;SDS011;10274;49.022;9.338;2022-09-06T14:58:33;1.55;;;0.80;;
20230;SDS011;10274;49.022;9.338;2022-09-06T15:01:04;0.90;;;0.80;;
20230;SDS011;10274;49.022;9.338;2022-09-06T15:03:32;1.65;;;0.80;;
20230;SDS011;10274;49.022;9.338;2022-09-06T15:06:00;0.70;;;0.70;;
20230;SDS011;10274;49.022;9.338;2022-09-06T15:08:28;0.90;;;0.90;;
20230;SDS011;10274;49.022;9.338;2022-09-06T15:10:55;1.52;;;1.08;;
20230;SDS011;10274;49.022;9.338;2022-09-06T15:13:22;3.08;;;0.90;;
20230;SDS011;10274;49.022;9.338;2022-09-06T15:15:50;0.85;;;0.85;;
20230;SDS011;10274;49.022;9.338;2022-09-06T15:18:17;2.25;;;1.05;;
20230;SDS011;10274;49.022;9.338;2022-09-06T15:20:44;1.67;;;0.98;;
20230;SDS011;10274;49.022;9.338;2022-09-06T15:23:10;0.68;;;0.68;;
20230;SDS011;10274;49.022;9.338;2022-09-06T15:25:44;1.65;;;1.00;;
20230;SDS011;10274;49.022;9.338;2022-09-06T15:28:12;1.45;;;1.30;;
20230;SDS011;10274;49.022;9.338;2022-09-06T15:30:39;2.33;;;0.98;;